createdAt,value
2022-08-14T00:00:11.051Z,14.42
2022-08-14T00:02:44.303Z,14.36
2022-08-14T00:05:18.946Z,14.18
2022-08-14T00:07:51.019Z,14.17
2022-08-14T00:10:52.148Z,14.15
2022-08-14T00:13:13.774Z,14.19
2022-08-14T00:15:48.402Z,14.26
2022-08-14T00:18:30.393Z,14.23
2022-08-14T00:21:11.622Z,14.29
2022-08-14T00:23:43.228Z,14.44
2022-08-14T00:26:21.671Z,14.33
2022-08-14T00:28:53.331Z,14.37
2022-08-14T00:31:34.693Z,14.25
2022-08-14T00:34:36.576Z,14.17
2022-08-14T00:37:01.874Z,14.21
2022-08-14T00:39:33.372Z,14.20
2022-08-14T00:42:02.667Z,14.07
2022-08-14T00:44:33.370Z,13.96
2022-08-14T00:47:03.666Z,13.80
2022-08-14T00:49:38.323Z,13.65
2022-08-14T00:52:18.007Z,13.63
2022-08-14T00:54:57.869Z,13.58
2022-08-14T00:57:32.075Z,13.73
2022-08-14T01:00:03.168Z,13.73
2022-08-14T01:02:32.465Z,13.64
2022-08-14T01:05:02.867Z,13.53
2022-08-14T01:07:38.655Z,13.66
2022-08-14T01:10:18.920Z,13.63
2022-08-14T01:12:48.809Z,13.63
2022-08-14T01:15:31.636Z,13.55
2022-08-14T01:18:27.990Z,13.39
2022-08-14T01:21:11.847Z,13.49
2022-08-14T01:23:47.259Z,13.30
2022-08-14T01:26:23.516Z,13.43
2022-08-14T01:29:07.443Z,13.35
2022-08-14T01:31:50.383Z,13.46
2022-08-14T01:35:17.569Z,13.30
2022-08-14T01:37:12.714Z,13.16
2022-08-14T01:39:47.180Z,13.07
2022-08-14T01:42:31.425Z,13.12
2022-08-14T01:45:12.757Z,13.24
2022-08-14T01:47:47.184Z,13.19
2022-08-14T01:50:18.961Z,13.24
2022-08-14T01:52:58.613Z,13.24
2022-08-14T01:55:32.504Z,13.19
2022-08-14T01:58:19.526Z,13.09
2022-08-14T02:00:54.960Z,13.02
2022-08-14T02:03:30.967Z,12.97
2022-08-14T02:06:03.911Z,13.17
2022-08-14T02:08:52.798Z,13.01
2022-08-14T02:11:27.047Z,12.86
2022-08-14T02:14:07.158Z,12.80
2022-08-14T02:16:41.523Z,12.88
2022-08-14T02:19:15.013Z,12.68
2022-08-14T02:21:48.743Z,12.68
2022-08-14T02:24:38.834Z,12.89
2022-08-14T02:28:24.681Z,12.99
2022-08-14T02:30:02.827Z,12.85
2022-08-14T02:32:44.644Z,12.74
2022-08-14T02:35:17.997Z,12.80
2022-08-14T02:37:49.426Z,12.62
2022-08-14T02:40:20.318Z,12.65
2022-08-14T02:42:54.636Z,12.53
2022-08-14T02:45:38.849Z,12.60
2022-08-14T02:49:03.350Z,12.71
2022-08-14T02:51:08.942Z,12.56
2022-08-14T02:53:42.453Z,12.63
2022-08-14T02:56:30.097Z,12.59
2022-08-14T02:59:05.556Z,12.66
2022-08-14T03:01:43.876Z,12.54
2022-08-14T03:04:20.872Z,12.47
2022-08-14T03:06:58.043Z,12.47
2022-08-14T03:10:26.729Z,12.68
2022-08-14T03:12:32.389Z,12.64
2022-08-14T03:15:16.479Z,12.52
2022-08-14T03:17:57.062Z,12.49
2022-08-14T03:20:29.206Z,12.40
2022-08-14T03:23:03.177Z,12.46
2022-08-14T03:25:34.336Z,12.32
2022-08-14T03:28:14.354Z,12.50
2022-08-14T03:30:46.224Z,12.50
2022-08-14T03:33:15.367Z,12.60
2022-08-14T03:36:00.293Z,12.39
2022-08-14T03:39:14.959Z,12.45
2022-08-14T03:41:26.449Z,12.47
2022-08-14T03:44:01.530Z,12.43
2022-08-14T03:46:54.460Z,12.41
2022-08-14T03:49:29.666Z,12.47
2022-08-14T03:52:00.908Z,12.39
2022-08-14T03:54:35.826Z,12.49
2022-08-14T03:57:06.733Z,12.38
2022-08-14T03:59:36.796Z,12.24
2022-08-14T04:02:37.237Z,12.37
2022-08-14T04:04:57.336Z,12.38
2022-08-14T04:07:49.721Z,12.44
2022-08-14T04:10:32.657Z,12.47
2022-08-14T04:13:03.449Z,12.39
2022-08-14T04:15:56.748Z,12.42
2022-08-14T04:18:24.248Z,12.43
2022-08-14T04:20:54.541Z,12.35
2022-08-14T04:23:29.946Z,12.33
2022-08-14T04:26:04.827Z,12.34
2022-08-14T04:29:08.054Z,12.39
2022-08-14T04:33:10.696Z,12.60
2022-08-14T04:34:24.234Z,12.49
2022-08-14T04:37:17.463Z,12.46
2022-08-14T04:40:09.155Z,12.70
2022-08-14T04:43:00.782Z,12.86
2022-08-14T04:45:40.994Z,12.96
2022-08-14T04:48:38.692Z,13.17
2022-08-14T04:51:10.696Z,13.12
2022-08-14T04:53:44.596Z,13.21
2022-08-14T04:56:30.832Z,13.29
2022-08-14T04:59:10.136Z,13.30
2022-08-14T05:01:48.874Z,13.42
2022-08-14T05:04:21.017Z,13.39
2022-08-14T05:06:55.153Z,13.53
2022-08-14T05:09:29.405Z,13.64
2022-08-14T05:13:11.148Z,13.69
2022-08-14T05:14:54.660Z,13.85
2022-08-14T05:17:28.854Z,14.00
2022-08-14T05:21:56.098Z,13.92
2022-08-14T05:23:03.652Z,14.18
2022-08-14T05:25:34.389Z,14.23
2022-08-14T05:28:14.189Z,14.21
2022-08-14T05:30:46.846Z,14.48
2022-08-14T05:33:18.668Z,14.62
2022-08-14T05:35:51.042Z,14.71
2022-08-14T05:38:30.686Z,14.88
2022-08-14T05:41:02.345Z,14.99
2022-08-14T05:43:41.613Z,14.88
2022-08-14T05:46:15.414Z,15.07
2022-08-14T05:48:45.477Z,15.33
2022-08-14T05:51:14.896Z,15.46
2022-08-14T05:54:00.307Z,15.52
2022-08-14T05:56:37.116Z,15.70
2022-08-14T05:59:07.221Z,15.97
2022-08-14T06:01:36.777Z,16.03
2022-08-14T06:04:06.256Z,16.17
2022-08-14T06:06:38.376Z,16.31
2022-08-14T06:09:10.599Z,16.45
2022-08-14T06:11:39.863Z,16.65
2022-08-14T06:14:20.820Z,16.73
2022-08-14T06:16:53.049Z,16.93
2022-08-14T06:19:23.462Z,17.04
2022-08-14T06:21:59.006Z,17.17
2022-08-14T06:24:34.659Z,17.32
2022-08-14T06:27:09.975Z,17.47
2022-08-14T06:29:40.377Z,17.61
2022-08-14T06:32:38.726Z,17.85
2022-08-14T06:35:09.122Z,18.03
2022-08-14T06:37:45.205Z,18.25
2022-08-14T06:40:26.920Z,18.47
2022-08-14T06:43:00.366Z,18.69
2022-08-14T06:45:32.727Z,18.89
2022-08-14T06:48:06.327Z,19.09
2022-08-14T06:50:42.200Z,19.29
2022-08-14T06:53:16.585Z,19.45
2022-08-14T06:55:53.228Z,19.63
2022-08-14T06:58:30.952Z,19.81
2022-08-14T07:01:27.116Z,20.01
2022-08-14T07:04:23.169Z,20.23
2022-08-14T07:06:58.495Z,20.45
2022-08-14T07:09:40.496Z,20.54
2022-08-14T07:12:34.757Z,20.74
2022-08-14T07:15:05.905Z,20.95
2022-08-14T07:17:36.316Z,21.10
2022-08-14T07:20:07.616Z,21.23
2022-08-14T07:22:55.863Z,21.44
2022-08-14T07:25:32.564Z,21.71
2022-08-14T07:28:12.866Z,21.98
2022-08-14T07:30:50.737Z,22.14
2022-08-14T07:33:29.300Z,22.25
2022-08-14T07:36:26.263Z,22.40
2022-08-14T07:38:53.095Z,22.56
2022-08-14T07:41:22.180Z,22.71
2022-08-14T07:43:55.807Z,22.92
2022-08-14T07:46:28.299Z,23.10
2022-08-14T07:48:58.993Z,23.30
2022-08-14T07:51:36.631Z,23.52
2022-08-14T07:54:11.103Z,23.60
2022-08-14T07:56:48.164Z,23.60
2022-08-14T07:59:41.490Z,23.65
2022-08-14T08:02:18.087Z,23.82
2022-08-14T08:04:54.026Z,23.94
2022-08-14T08:07:30.136Z,24.04
2022-08-14T08:10:31.183Z,24.16
2022-08-14T08:13:18.076Z,24.32
2022-08-14T08:15:56.601Z,24.06
2022-08-14T08:18:29.814Z,24.15
2022-08-14T08:21:00.696Z,24.46
2022-08-14T08:23:43.711Z,24.75
2022-08-14T08:26:20.775Z,24.91
2022-08-14T08:28:58.040Z,24.82
2022-08-14T08:31:33.142Z,24.93
2022-08-14T08:34:07.402Z,25.10
2022-08-14T08:36:46.488Z,25.26
2022-08-14T08:39:22.583Z,25.44
2022-08-14T08:41:53.609Z,25.71
2022-08-14T08:44:32.663Z,25.94
2022-08-14T08:47:06.771Z,25.97
2022-08-14T08:49:59.295Z,25.95
2022-08-14T08:52:31.158Z,26.00
2022-08-14T08:55:05.031Z,26.09
2022-08-14T08:57:37.607Z,26.29
2022-08-14T09:00:24.894Z,26.33
2022-08-14T09:03:03.221Z,26.41
2022-08-14T09:05:37.318Z,26.60
2022-08-14T09:08:30.892Z,26.81
2022-08-14T09:11:18.780Z,27.04
2022-08-14T09:13:53.247Z,27.26
2022-08-14T09:16:25.345Z,27.39
2022-08-14T09:18:57.507Z,27.45
2022-08-14T09:21:31.695Z,27.59
2022-08-14T09:24:30.248Z,27.52
2022-08-14T09:26:50.967Z,27.27
2022-08-14T09:29:23.520Z,26.95
2022-08-14T09:31:58.201Z,27.21
2022-08-14T09:34:59.272Z,27.54
2022-08-14T09:37:38.729Z,27.79
2022-08-14T09:40:22.284Z,27.98
2022-08-14T09:43:05.600Z,27.80
2022-08-14T09:45:53.298Z,27.13
2022-08-14T09:48:29.857Z,26.78
2022-08-14T09:54:18.578Z,27.37
2022-08-14T09:56:45.761Z,27.65
2022-08-14T09:59:22.272Z,27.88
2022-08-14T10:01:53.234Z,28.17
2022-08-14T10:04:36.544Z,28.45
2022-08-14T10:07:10.231Z,28.66
2022-08-14T10:09:59.898Z,28.73
2022-08-14T10:12:52.902Z,28.48
2022-08-14T10:15:29.777Z,28.43
2022-08-14T10:18:17.215Z,28.72
2022-08-14T10:20:57.549Z,29.16
2022-08-14T10:23:39.704Z,29.41
2022-08-14T10:26:11.975Z,29.22
2022-08-14T10:29:18.621Z,28.59
2022-08-14T10:31:45.876Z,28.51
2022-08-14T10:34:29.038Z,28.62
2022-08-14T10:37:14.265Z,28.71
2022-08-14T10:40:05.629Z,29.05
2022-08-14T10:42:43.592Z,28.75
2022-08-14T10:45:22.036Z,28.34
2022-08-14T10:48:07.847Z,28.43
2022-08-14T10:50:46.528Z,29.16
2022-08-14T10:53:15.896Z,29.54
2022-08-14T10:55:48.251Z,29.75
2022-08-14T10:58:32.818Z,30.30
2022-08-14T11:01:05.589Z,30.46
2022-08-14T11:03:55.726Z,29.50
2022-08-14T11:06:27.251Z,28.71
2022-08-14T11:08:56.597Z,29.30
2022-08-14T11:11:28.563Z,29.63
2022-08-14T11:14:09.384Z,29.33
2022-08-14T11:16:40.583Z,29.03
2022-08-14T11:19:11.319Z,28.70
2022-08-14T11:21:45.799Z,29.21
2022-08-14T11:24:55.257Z,30.75
2022-08-14T11:27:11.366Z,32.72
2022-08-14T11:29:42.263Z,33.47
2022-08-14T11:32:12.103Z,34.77
2022-08-14T11:34:41.917Z,35.97
2022-08-14T11:37:21.535Z,37.00
2022-08-14T11:40:02.222Z,37.03
2022-08-14T11:42:58.445Z,37.47
2022-08-14T11:45:23.444Z,38.03
2022-08-14T11:48:12.584Z,38.23
2022-08-14T11:50:43.437Z,37.71
2022-08-14T11:53:22.147Z,38.78
2022-08-14T11:55:58.489Z,37.77
2022-08-14T11:58:31.224Z,37.03
2022-08-14T12:01:07.175Z,35.27
2022-08-14T12:03:52.295Z,34.36
2022-08-14T12:06:39.186Z,33.01
2022-08-14T12:09:13.921Z,32.41
2022-08-14T12:11:46.878Z,31.75
2022-08-14T12:14:30.440Z,31.38
2022-08-14T12:17:09.625Z,31.94
2022-08-14T12:19:51.449Z,32.65
2022-08-14T12:22:40.172Z,32.88
2022-08-14T12:25:15.432Z,33.58
2022-08-14T12:27:53.183Z,33.96
2022-08-14T12:30:42.571Z,33.77
2022-08-14T12:33:26.996Z,33.35
2022-08-14T12:36:04.520Z,33.16
2022-08-14T12:38:38.699Z,32.87
2022-08-14T12:41:16.423Z,32.31
2022-08-14T12:43:53.704Z,33.28
2022-08-14T12:46:29.247Z,33.97
2022-08-14T12:49:02.384Z,35.66
2022-08-14T12:51:32.572Z,34.93
2022-08-14T12:54:18.614Z,34.70
2022-08-14T12:57:07.948Z,36.27
2022-08-14T12:59:42.829Z,36.06
2022-08-14T13:02:25.256Z,34.77
2022-08-14T13:04:56.751Z,33.68
2022-08-14T13:07:32.006Z,33.74
2022-08-14T13:10:46.129Z,35.24
2022-08-14T13:13:15.469Z,34.57
2022-08-14T13:15:46.483Z,33.95
2022-08-14T13:18:18.083Z,33.39
2022-08-14T13:20:55.400Z,33.12
2022-08-14T13:23:31.604Z,33.78
2022-08-14T13:26:02.821Z,34.13
2022-08-14T13:28:41.269Z,35.18
2022-08-14T13:31:30.037Z,37.77
2022-08-14T13:34:04.511Z,40.07
2022-08-14T13:36:54.520Z,41.08
2022-08-14T13:39:26.347Z,40.02
2022-08-14T13:41:57.550Z,38.87
2022-08-14T13:44:28.800Z,37.48
2022-08-14T13:46:58.767Z,37.99
2022-08-14T13:49:29.378Z,38.50
2022-08-14T13:52:01.447Z,40.73
2022-08-14T13:54:32.878Z,42.12
2022-08-14T13:57:03.796Z,40.14
2022-08-14T13:59:38.653Z,38.65
2022-08-14T14:02:09.545Z,38.54
2022-08-14T14:04:46.401Z,41.65
2022-08-14T14:07:23.563Z,44.27
2022-08-14T14:09:56.664Z,44.90
2022-08-14T14:12:38.475Z,45.10
2022-08-14T14:15:13.826Z,42.06
2022-08-14T14:17:46.543Z,39.44
2022-08-14T14:20:35.949Z,38.91
2022-08-14T14:23:12.167Z,42.72
2022-08-14T14:25:51.225Z,41.15
2022-08-14T14:28:34.223Z,43.25
2022-08-14T14:31:05.846Z,43.20
2022-08-14T14:33:46.669Z,45.61
2022-08-14T14:36:25.381Z,47.57
2022-08-14T14:38:58.192Z,48.72
2022-08-14T14:41:38.076Z,47.86
2022-08-14T14:44:13.591Z,47.71
2022-08-14T14:46:51.155Z,49.56
2022-08-14T14:49:31.994Z,49.35
2022-08-14T14:52:27.353Z,50.14
2022-08-14T14:54:59.050Z,50.61
2022-08-14T14:57:35.540Z,50.67
2022-08-14T15:00:12.602Z,50.67
2022-08-14T15:02:47.306Z,49.73
2022-08-14T15:05:23.449Z,49.22
2022-08-14T15:07:59.044Z,50.39
2022-08-14T15:10:34.223Z,50.53
2022-08-14T15:13:07.250Z,49.23
2022-08-14T15:15:38.062Z,49.71
2022-08-14T15:18:36.389Z,51.07
2022-08-14T15:21:02.620Z,48.72
2022-08-14T15:23:43.719Z,45.29
2022-08-14T15:26:24.070Z,44.09
2022-08-14T15:29:05.717Z,46.76
2022-08-14T15:31:37.319Z,45.71
2022-08-14T15:34:44.795Z,42.77
2022-08-14T15:37:06.615Z,39.40
2022-08-14T15:39:44.381Z,40.11
2022-08-14T15:42:16.123Z,42.64
2022-08-14T15:44:58.047Z,43.99
2022-08-14T15:47:34.715Z,42.15
2022-08-14T15:50:09.641Z,41.41
2022-08-14T15:52:42.932Z,40.36
2022-08-14T15:55:16.394Z,39.24
2022-08-14T15:57:51.440Z,39.04
2022-08-14T16:00:51.981Z,41.17
2022-08-14T16:03:27.203Z,41.49
2022-08-14T16:06:10.633Z,40.77
2022-08-14T16:08:40.947Z,40.47
2022-08-14T16:11:13.208Z,41.69
2022-08-14T16:13:44.367Z,43.79
2022-08-14T16:16:47.378Z,43.07
2022-08-14T16:19:11.151Z,39.99
2022-08-14T16:22:02.255Z,36.99
2022-08-14T16:24:36.060Z,33.90
2022-08-14T16:27:39.022Z,32.48
2022-08-14T16:30:25.227Z,31.14
2022-08-14T16:35:55.906Z,29.55
2022-08-14T16:38:45.854Z,29.24
2022-08-14T16:40:24.515Z,29.98
2022-08-14T16:41:22.971Z,29.11
2022-08-14T16:44:01.349Z,28.92
2022-08-14T16:46:34.851Z,28.79
2022-08-14T16:49:07.166Z,28.75
2022-08-14T16:51:39.021Z,28.51
2022-08-14T16:54:34.381Z,28.38
2022-08-14T16:57:17.231Z,28.20
2022-08-14T16:59:52.204Z,28.05
2022-08-14T17:02:38.950Z,27.80
2022-08-14T17:05:24.819Z,27.72
2022-08-14T17:08:41.812Z,27.52
2022-08-14T17:11:10.522Z,27.33
2022-08-14T17:13:58.371Z,27.12
2022-08-14T17:16:38.176Z,26.90
2022-08-14T17:19:13.613Z,26.67
2022-08-14T17:21:47.327Z,26.63
2022-08-14T17:24:57.979Z,26.50
2022-08-14T17:27:09.421Z,26.42
2022-08-14T17:32:56.629Z,27.24
2022-08-14T17:35:58.809Z,28.79
2022-08-14T17:38:38.383Z,30.18
2022-08-14T17:41:23.854Z,30.37
2022-08-14T17:44:10.807Z,29.52
2022-08-14T17:46:43.944Z,29.69
2022-08-14T17:49:18.361Z,29.46
2022-08-14T17:52:07.711Z,28.39
2022-08-14T17:54:52.911Z,27.38
2022-08-14T17:57:35.344Z,26.72
2022-08-14T18:00:14.777Z,26.30
2022-08-14T18:02:50.821Z,25.97
2022-08-14T18:06:06.937Z,25.71
2022-08-14T18:08:33.733Z,25.48
2022-08-14T18:11:03.499Z,25.29
2022-08-14T18:13:51.259Z,25.14
2022-08-14T18:16:22.968Z,24.96
2022-08-14T18:18:52.738Z,24.80
2022-08-14T18:21:41.442Z,24.64
2022-08-14T18:24:19.913Z,24.39
2022-08-14T18:27:08.663Z,24.33
2022-08-14T18:29:54.493Z,24.16
2022-08-14T18:32:47.427Z,24.00
2022-08-14T18:35:56.739Z,23.96
2022-08-14T18:38:55.124Z,23.99
2022-08-14T18:41:36.981Z,23.89
2022-08-14T18:44:10.131Z,23.85
2022-08-14T18:47:23.799Z,23.79
2022-08-14T18:50:27.734Z,23.71
2022-08-14T18:52:55.106Z,23.66
2022-08-14T18:55:54.072Z,23.45
2022-08-14T18:58:31.496Z,23.41
2022-08-14T19:01:06.066Z,23.41
2022-08-14T19:04:01.595Z,23.34
2022-08-14T19:06:56.581Z,23.35
2022-08-14T19:09:57.819Z,23.16
2022-08-14T19:13:05.445Z,23.06
2022-08-14T19:15:44.549Z,23.10
2022-08-14T19:18:38.360Z,23.11
2022-08-14T19:21:24.015Z,23.06
2022-08-14T19:24:29.613Z,22.92
2022-08-14T19:27:19.488Z,22.70
2022-08-14T19:30:24.446Z,22.64
2022-08-14T19:33:02.500Z,22.65
2022-08-14T19:35:56.032Z,22.68
2022-08-14T19:38:54.659Z,22.59
2022-08-14T19:41:30.671Z,22.59
2022-08-14T19:44:13.635Z,22.50
2022-08-14T19:47:01.041Z,22.50
2022-08-14T19:50:08.728Z,22.52
2022-08-14T19:52:26.858Z,22.56
2022-08-14T19:55:00.486Z,22.47
2022-08-14T19:57:31.960Z,22.41
2022-08-14T20:00:28.438Z,22.40
2022-08-14T20:03:11.389Z,22.36
2022-08-14T20:05:43.010Z,22.28
2022-08-14T20:11:07.164Z,22.26
2022-08-14T20:11:20.888Z,22.17
2022-08-14T20:14:01.735Z,22.07
2022-08-14T20:16:34.838Z,22.00
2022-08-14T20:19:23.233Z,22.06
2022-08-14T20:22:18.061Z,22.16
2022-08-14T20:24:47.313Z,21.88
2022-08-14T20:27:33.721Z,21.81
2022-08-14T20:30:37.614Z,21.92
2022-08-14T20:33:11.502Z,21.90
2022-08-14T20:35:49.219Z,21.76
2022-08-14T20:38:20.685Z,21.59
2022-08-14T20:41:06.659Z,21.66
2022-08-14T20:43:59.502Z,21.62
2022-08-14T20:46:38.675Z,21.62
2022-08-14T20:49:12.485Z,21.55
2022-08-14T20:51:54.776Z,21.48
2022-08-14T20:54:34.062Z,21.48
2022-08-14T20:57:12.053Z,21.31
2022-08-14T20:59:48.734Z,21.29
2022-08-14T21:02:46.610Z,21.26
2022-08-14T21:05:33.784Z,21.20
2022-08-14T21:08:09.588Z,21.21
2022-08-14T21:10:56.760Z,21.23
2022-08-14T21:14:20.530Z,21.03
2022-08-14T21:16:33.016Z,21.10
2022-08-14T21:19:05.668Z,21.24
2022-08-14T21:21:41.620Z,21.33
2022-08-14T21:24:38.378Z,21.29
2022-08-14T21:27:19.686Z,21.20
2022-08-14T21:29:54.275Z,21.08
2022-08-14T21:32:50.201Z,21.04
2022-08-14T21:35:22.805Z,21.14
2022-08-14T21:37:53.927Z,21.02
2022-08-14T21:40:41.849Z,20.98
2022-08-14T21:43:18.046Z,20.96
2022-08-14T21:45:51.652Z,20.83
2022-08-14T21:48:25.323Z,20.67
2022-08-14T21:51:53.808Z,20.58
2022-08-14T21:53:59.661Z,20.50
2022-08-14T21:56:38.703Z,20.49
2022-08-14T21:59:18.290Z,20.50
2022-08-14T22:02:01.003Z,20.48
2022-08-14T22:04:40.633Z,20.49
2022-08-14T22:07:17.327Z,20.62
2022-08-14T22:09:55.002Z,20.57
2022-08-14T22:12:57.608Z,20.65
2022-08-14T22:15:17.986Z,20.58
2022-08-14T22:17:54.171Z,20.55
2022-08-14T22:20:28.092Z,20.57
2022-08-14T22:23:06.053Z,20.60
2022-08-14T22:25:41.044Z,20.50
2022-08-14T22:28:17.700Z,20.52
2022-08-14T22:30:54.786Z,20.49
2022-08-14T22:33:31.066Z,20.46
2022-08-14T22:36:25.463Z,20.52
2022-08-14T22:38:56.761Z,20.49
2022-08-14T22:41:32.699Z,20.39
2022-08-14T22:44:10.858Z,20.19
2022-08-14T22:46:43.293Z,20.09
2022-08-14T22:49:16.336Z,20.04
2022-08-14T22:52:31.547Z,19.87
2022-08-14T22:54:58.871Z,19.72
2022-08-14T22:57:37.571Z,19.68
2022-08-14T23:00:16.546Z,19.76
2022-08-14T23:02:46.781Z,19.65
2022-08-14T23:05:16.582Z,19.57
2022-08-14T23:08:58.331Z,19.56
2022-08-14T23:10:56.740Z,19.58
2022-08-14T23:13:26.504Z,19.48
2022-08-14T23:16:00.296Z,19.35
2022-08-14T23:18:30.362Z,19.61
2022-08-14T23:20:59.626Z,19.21
2022-08-14T23:23:29.204Z,19.05
2022-08-14T23:26:49.848Z,19.08
2022-08-14T23:28:56.930Z,18.81
2022-08-14T23:31:35.599Z,18.85
2022-08-14T23:36:55.479Z,18.74
2022-08-14T23:39:31.093Z,18.49
2022-08-14T23:42:04.643Z,18.40
2022-08-14T23:44:37.074Z,18.47
2022-08-14T23:47:11.922Z,18.62
2022-08-14T23:50:00.719Z,18.64
2022-08-14T23:52:56.379Z,18.53
2022-08-14T23:55:30.259Z,18.55
2022-08-14T23:58:00.662Z,18.55
